• Join FlightAware (Why Join?)
  • Login
  • US Flag 
10:44PM EDT


 

Airport Tracker/Info


-or-


 

Live Flight TrackerFlight Track Log ✈ N130RC ✈ 06-May-2013 ✈ KCOD - KIXD

Flight Track Log - Related Links

Times and Time Zones

All times are in EDT time to prevent confusion due to time zone crossing. See the N130RC flight status page for this flight to view local times or setup timezone preferences in your user account.

Time Position Orientation Groundspeed Altitude Reporting Facility
EDT Latitude Longitude Course Direction KTS MPH feet Rate Location/Type
12:25PM 44.4794 -108.9500 127° Southeast 147 169 7,100  Level Salt Lake Center
12:26PM 44.4619 -108.9153 125° Southeast 118 136 7,800 540 Climbing Salt Lake Center
12:27PM 44.4422 -108.8792 127° Southeast 119 137 8,300 540 Climbing Salt Lake Center
12:29PM 44.3975 -108.7919 126° Southeast 130 150 9,500 600 Climbing Salt Lake Center
12:30PM 44.3780 -108.7430 127° Southeast  Level FlightAware Approximate
12:30PM 44.3722 -108.7422 125° Southeast 136 157 10,300  Level Salt Lake Center
12:32PM 44.3247 -108.6508 126° Southeast 140 161 11,500 540 Climbing Salt Lake Center
12:33PM 44.3025 -108.6069 125° Southeast 142 163 12,100 540 Climbing Salt Lake Center
12:34PM 44.2744 -108.5553 127° Southeast 146 168 12,700 480 Climbing Salt Lake Center
12:35PM 44.2511 -108.5086 125° Southeast 149 171 13,200 480 Climbing Salt Lake Center
12:37PM 44.1969 -108.4081 127° Southeast 155 178 14,300 540 Climbing Salt Lake Center
12:39PM 44.1347 -108.2864 125° Southeast 159 183 15,600 540 Climbing Denver Center
12:41PM 44.0811 -108.1819 126° Southeast 160 184 16,700 480 Climbing Denver Center
12:42PM 44.0636 -108.1522 129° Southeast 160 184 17,000 120 Climbing Salt Lake Center
12:43PM 44.0322 -108.0933 127° Southeast 164 189 17,000  Level Salt Lake Center
12:44PM 44.0050 -108.0400 125° Southeast 170 196 17,000  Level Salt Lake Center
12:46PM 43.9500 -107.9283 124° Southeast 170 196 17,000  Level Salt Lake Center
12:49PM 43.9017 -107.7897 116° Southeast 166 191 17,000  Level Denver Center
12:49PM 43.8869 -107.7550 120° Southeast 166 191 17,000  Level Salt Lake Center
12:50PM 43.8650 -107.6908 115° Southeast 165 190 17,000  Level Salt Lake Center
12:53PM 43.8211 -107.5725 117° Southeast 166 191 17,000  Level Salt Lake Center
12:54PM 43.8006 -107.5208 119° Southeast 163 188 17,000  Level Salt Lake Center
12:55PM 43.7808 -107.4647 116° Southeast 167 192 17,000  Level Salt Lake Center
12:56PM 43.7561 -107.4011 118° Southeast 169 194 17,000  Level Salt Lake Center
12:58PM 43.7117 -107.2797 117° Southeast 171 197 17,000  Level Salt Lake Center
01:00PM 43.6706 -107.1711 117° Southeast  Level FlightAware Approximate
01:01PM 43.6475 -107.1031 117° Southeast 169 194 17,000  Level Salt Lake Center
01:02PM 43.6161 -107.0186 117° Southeast 171 197 17,000  Level Denver Center
01:04PM 43.5863 -106.9393 117° Southeast  Level FlightAware Approximate
01:05PM 43.5475 -106.8369 117° Southeast 175 201 17,000  Level Denver Center
01:06PM 43.5228 -106.7708 117° Southeast 175 201 17,000  Level Denver Center
01:07PM 43.5019 -106.7147 117° Southeast 173 199 17,000  Level Denver Center
01:08PM 43.4769 -106.6486 118° Southeast 174 200 17,000  Level Denver Center
01:10PM 43.4392 -106.5592 120° Southeast 172 198 17,000  Level Salt Lake Center
01:11PM 43.4308 -106.5296 117° Southeast  Level FlightAware Approximate
01:11PM 43.4181 -106.5028 117° Southeast 173 199 17,000  Level Salt Lake Center
01:11PM 43.4100 -106.4725 110° East 171 197 17,000  Level Denver Center
01:13PM 43.3889 -106.4167 117° Southeast 172 198 17,000  Level Denver Center
01:14PM 43.3639 -106.3517 118° Southeast 172 198 17,000  Level Denver Center
01:15PM 43.3425 -106.2961 118° Southeast 172 198 17,000  Level Denver Center
01:16PM 43.3172 -106.2306 118° Southeast 173 199 17,000  Level Denver Center
01:17PM 43.2964 -106.1747 117° Southeast 172 198 17,000  Level Denver Center
01:18PM 43.2717 -106.1111 118° Southeast 170 196 17,000  Level Denver Center
01:20PM 43.2302 -106.0048 118° Southeast  Level FlightAware Approximate
01:21PM 43.2083 -105.9356 118° Southeast 170 196 17,000  Level Denver Center
01:22PM 43.1828 -105.8717 119° Southeast 171 197 17,000  Level Denver Center
01:24PM 43.1439 -105.7736 119° Southeast  Level FlightAware Approximate
01:26PM 43.0928 -105.6444 119° Southeast 170 196 17,000  Level Denver Center
01:27PM 43.0675 -105.5789 118° Southeast 172 198 17,000  Level Denver Center
01:29PM 43.0375 -105.4871 114° Southeast  Level Estimated
01:30PM 42.9981 -105.4028 114° Southeast 174 200 17,000  Level Denver Center
01:31PM 42.9827 -105.3709 119° Southeast  Level FlightAware Approximate
01:31PM 42.9722 -105.3381 119° Southeast 174 200 17,000  Level Denver Center
01:32PM 42.9596 -105.3135 119° Southeast  Level FlightAware Approximate
01:33PM 42.9450 -105.2554 114° Southeast  Level Estimated
01:37PM 42.8283 -104.9778 115° Southeast 174 200 17,000  Level Denver Center
01:38PM 42.8061 -104.9225 119° Southeast 174 200 17,000  Level Denver Center
01:39PM 42.7794 -104.8569 119° Southeast 176 203 17,000  Level Denver Center
01:40PM 42.8066 -104.8385 114° Southeast  Level Estimated
01:40PM 42.7564 -104.8006 119° Southeast 177 204 17,000  Level Denver Center
01:41PM 42.7867 -104.7791 115° Southeast  Level Estimated
01:41PM 42.7339 -104.7447 119° Southeast 177 204 17,000  Level Denver Center
01:42PM 42.7668 -104.7197 115° Southeast  Level Estimated
01:42PM 42.7081 -104.6797 118° Southeast 176 203 17,000  Level Denver Center
01:43PM 42.7468 -104.6604 115° Southeast  Level Estimated
01:44PM 42.6880 -104.6193 114° Southeast  Level Estimated
01:45PM 42.6578 -104.5564 114° Southeast 177 204 17,000  Level Denver Center
01:46PM 42.6350 -104.4992 118° Southeast 177 204 17,000  Level Denver Center
01:48PM 42.5850 -104.3794 120° Southeast 175 201 17,000  Level Denver Center
01:49PM 42.5628 -104.3250 119° Southeast 174 200 17,000  Level Denver Center
01:51PM 42.5153 -104.2086 119° Southeast 171 197 17,000  Level Denver Center
01:52PM 42.4894 -104.1456 119° Southeast 171 197 17,000  Level Denver Center
01:53PM 42.4675 -104.0925 119° Southeast 170 196 17,000  Level Denver Center
01:55PM 42.4279 -103.9975 119° Southeast  Level FlightAware Approximate
01:55PM 42.4197 -103.9761 119° Southeast 170 196 17,000  Level Denver Center
01:56PM 42.3928 -103.9139 120° Southeast 171 197 17,000  Level Denver Center
01:57PM 42.3706 -103.8603 119° Southeast 171 197 17,000  Level Denver Center
01:59PM 42.3343 -103.7740 120° Southeast  Level FlightAware Approximate
02:00PM 42.2989 -103.6883 120° Southeast 173 199 17,000  Level Denver Center
02:01PM 42.2728 -103.6267 120° Southeast 171 197 17,000  Level Denver Center
02:03PM 42.2395 -103.5481 120° Southeast  Level FlightAware Approximate
02:03PM 42.2192 -103.4997 120° Southeast 174 200 17,000  Level Denver Center
02:04PM 42.1931 -103.4372 119° Southeast 173 199 17,000  Level Denver Center
02:06PM 42.1667 -103.3757 120° Southeast  Level FlightAware Approximate
02:06PM 42.1679 -103.3812 120° Southeast  Level FlightAware Approximate
02:06PM 42.1442 -103.3208 120° Southeast 172 198 17,000  Level Denver Center
02:08PM 42.1211 -103.2669 120° Southeast 173 199 17,000  Level Denver Center
02:09PM 42.0944 -103.2044 120° Southeast 173 199 17,000  Level Denver Center
02:11PM 42.0483 -103.0967 120° Southeast 174 200 17,000  Level Denver Center
02:13PM 42.0022 -102.9912 120° Southeast  Level FlightAware Approximate
02:14PM 41.9711 -102.9156 120° Southeast 176 203 17,000  Level Denver Center
02:16PM 41.9203 -102.7992 120° Southeast 175 201 17,000  Level Denver Center
02:17PM 41.8975 -102.7461 120° Southeast 173 199 17,000  Level Denver Center
02:18PM 41.8703 -102.6833 120° Southeast 174 200 17,000  Level Denver Center
02:19PM 41.8472 -102.6303 120° Southeast 173 199 17,000  Level Denver Center
02:21PM 41.8085 -102.5392 120° Southeast  Level FlightAware Approximate
02:22PM 41.7722 -102.4600 120° Southeast 176 203 17,000  Level Denver Center
02:23PM 41.7444 -102.3942 119° Southeast 177 204 17,100  Climbing Denver Center
02:25PM 41.6928 -102.2769 121° Southeast 177 204 17,100  Level Denver Center
02:27PM 41.6587 -102.1960 119° Southeast  Level FlightAware Approximate
02:28PM 41.6417 -102.1500 120° Southeast  Level FlightAware Approximate
02:28PM 41.6181 -102.1047 121° Southeast 177 204 17,100  Level Denver Center
02:29PM 41.5956 -102.0511 119° Southeast 174 200 17,100  Level Denver Center
02:30PM 41.5722 -101.9861 116° Southeast 173 199 17,100  Level Denver Center
02:31PM 41.5519 -101.9314 116° Southeast 174 200 17,100  Level Denver Center
02:32PM 41.5297 -101.8667 115° Southeast 173 199 17,100  Level Denver Center
02:33PM 41.5111 -101.8111 114° Southeast 173 199 17,100  Level Denver Center
02:34PM 41.4921 -101.8077 121° Southeast  Level FlightAware Approximate
02:34PM 41.4875 -101.7450 115° Southeast 177 204 17,100  Level Denver Center
02:35PM 41.4678 -101.6889 115° Southeast 176 203 17,100  Level Denver Center
02:36PM 41.4486 -101.6325 114° Southeast 175 201 17,100  Level Denver Center
02:37PM 41.4253 -101.5658 115° Southeast 178 205 17,100  Level Denver Center
02:38PM 41.4058 -101.5103 115° Southeast 174 200 17,100  Level Denver Center
02:39PM 41.3847 -101.4439 113° Southeast 175 201 17,100  Level Denver Center
02:42PM 41.3314 -101.3355 123° Southeast  Level FlightAware Approximate
02:44PM 41.2961 -101.1956 123° Southeast 172 198 17,100  Level Denver Center
02:46PM 41.2617 -101.0975 115° Southeast  Level Estimated
02:47PM 41.2347 -101.0194 115° Southeast 173 199 17,100  Level Denver Center
02:48PM 41.2122 -100.9553 115° Southeast 172 198 17,100  Level Denver Center
02:49PM 41.1470 -100.9636 123° Southeast  Level FlightAware Approximate
02:49PM 41.1922 -100.9003 116° Southeast 172 198 17,100  Level Denver Center
02:51PM 41.1564 -100.7972 115° Southeast 171 197 17,100  Level Minneapolis Center
02:52PM 41.1328 -100.7281 114° Southeast 171 197 17,100  Level Minneapolis Center
02:53PM 41.1190 -100.6947 115° Southeast  Level Estimated
02:53PM 41.1128 -100.6703 115° Southeast 171 197 17,100  Level Minneapolis Center
02:54PM 41.0900 -100.6131 118° Southeast 173 199 17,100  Level Minneapolis Center
02:55PM 41.0639 -100.5389 115° Southeast 176 203 17,100  Level Denver Center
02:57PM 41.0275 -100.4392 116° Southeast 174 200 17,100  Level Minneapolis Center
02:58PM 41.0064 -100.3806 115° Southeast 175 201 17,100  Level Minneapolis Center
02:59PM 40.9814 -100.3094 115° Southeast 176 203 17,100  Level Minneapolis Center
03:01PM 40.9521 -100.2285 116° Southeast  Level Estimated
03:01PM 40.9392 -100.1933 116° Southeast 176 203 17,100  Level Minneapolis Center
03:02PM 40.9208 -100.1464 117° Southeast 176 203 17,100 -60 Level Minneapolis Center
03:03PM 40.8900 -100.0622 116° Southeast 178 205 17,000 -60 Descending Denver Center
03:04PM 40.8692 -100.0053 116° Southeast 179 206 17,000  Level Denver Center
03:07PM 40.8442 -99.9369 116° Southeast  Level Estimated
03:08PM 40.8000 -99.8161 116° Southeast 178 205 17,000  Level Denver Center
03:09PM 40.7789 -99.7575 115° Southeast 178 205 17,000  Level Denver Center
03:10PM 40.7561 -99.6994 117° Southeast 179 206 17,000  Level Denver Center
03:11PM 40.7344 -99.6386 115° Southeast 181 208 17,000  Level Denver Center
03:12PM 40.7111 -99.5789 117° Southeast 183 211 17,000  Level Denver Center
03:13PM 40.6911 -99.5211 115° Southeast 177 204 17,000  Level Denver Center
03:15PM 40.6478 -99.4064 116° Southeast 176 203 17,100  Climbing Minneapolis Center
03:17PM 40.6039 -99.2889 116° Southeast 178 205 17,100  Level Minneapolis Center
03:18PM 40.5822 -99.2303 116° Southeast 179 206 17,100  Level Minneapolis Center
03:19PM 40.5589 -99.1711 117° Southeast 181 208 17,100  Level Minneapolis Center
03:22PM 40.4886 -98.9811 116° Southeast 180 207 17,100  Level Minneapolis Center
03:23PM 40.4533 -98.8875 116° Southeast 179 206 17,100  Level Kansas City Center
03:24PM 40.4436 -98.8653 120° Southeast 179 206 17,100  Level Minneapolis Center
03:25PM 40.4206 -98.8067 117° Southeast 180 207 17,100  Level Minneapolis Center
03:27PM 40.3819 -98.7019 116° Southeast 178 205 17,100  Level Kansas City Center
03:27PM 40.3772 -98.6919 122° Southeast 176 203 17,100  Level Minneapolis Center
03:28PM 40.3519 -98.6244 116° Southeast 173 199 17,100  Level Minneapolis Center
03:29PM 40.3303 -98.5675 117° Southeast 173 199 17,100  Level Minneapolis Center
03:32PM 40.2753 -98.4192 116° Southeast 173 199 17,100  Level Kansas City Center
03:33PM 40.2494 -98.3508 116° Southeast 174 200 17,100  Level Kansas City Center
03:33PM 40.2436 -98.3433 136° Southeast 173 199 17,100  Level Minneapolis Center
03:35PM 40.2047 -98.2367 115° Southeast 177 204 17,100  Level Kansas City Center
03:35PM 40.2036 -98.2397 245° Southwest 177 204 17,100  Level Minneapolis Center
03:36PM 40.1717 -98.1594 117° Southeast 177 204 17,100  Level Minneapolis Center
03:38PM 40.1367 -98.0625 115° Southeast 180 207 17,100  Level Kansas City Center
03:38PM 40.1250 -98.0428 128° Southeast 180 207 17,100  Level Minneapolis Center
03:41PM 40.0906 -97.9545 117° Southeast  Level Estimated
03:41PM 40.0558 -97.8653 117° Southeast 183 211 17,100  Level Minneapolis Center
03:42PM 40.0331 -97.8069 117° Southeast 182 209 17,100  Level Minneapolis Center
03:44PM 39.9944 -97.7025 116° Southeast 175 201 17,100  Level Kansas City Center
03:44PM 39.9842 -97.6811 122° Southeast 177 204 17,100  Level Minneapolis Center
03:46PM 39.9617 -97.6244 117° Southeast 177 204 17,100  Level Minneapolis Center
03:47PM 39.9211 -97.5197 117° Southeast 179 206 17,100  Level Kansas City Center
03:48PM 39.9117 -97.4969 118° Southeast 179 206 17,100  Level Minneapolis Center
03:49PM 39.8883 -97.4394 118° Southeast 180 207 17,100  Level Minneapolis Center
03:50PM 39.8653 -97.3819 118° Southeast 180 207 17,100  Level Minneapolis Center
03:51PM 39.8319 -97.3006 118° Southeast 182 209 17,100  Level Minneapolis Center
03:52PM 39.8083 -97.2417 118° Southeast 181 208 17,100  Level Minneapolis Center
03:54PM 39.7829 -97.1781 118° Southeast  Level Estimated
03:54PM 39.7561 -97.1078 118° Southeast 177 204 17,100  Level Kansas City Center
03:55PM 39.7319 -97.0497 118° Southeast 180 207 17,100  Level Kansas City Center
03:57PM 39.6925 -96.9542 118° Southeast 178 205 17,100  Level Minneapolis Center
03:58PM 39.6856 -96.9358 116° Southeast 179 206 17,100  Level Kansas City Center
03:59PM 39.6589 -96.8675 117° Southeast 178 205 17,100  Level Kansas City Center
04:00PM 39.6331 -96.8100 120° Southeast 186 214 17,100  Level Kansas City Center
04:02PM 39.5844 -96.6908 118° Southeast 181 208 17,100  Level Kansas City Center
04:03PM 39.5578 -96.6264 118° Southeast 182 209 17,100 -120 Level Kansas City Center
04:04PM 39.5350 -96.5706 118° Southeast 182 209 16,900 -420 Descending Kansas City Center
04:06PM 39.4951 -96.4728 118° Southeast  Level Estimated
04:07PM 39.4553 -96.3733 118° Southeast 203 234 15,500  Level Kansas City Center
04:08PM 39.4247 -96.3047 120° Southeast 200 230 15,000 -540 Descending Kansas City Center
04:10PM 39.3725 -96.1711 117° Southeast 198 228 13,900 -540 Descending Kansas City Center
04:11PM 39.3469 -96.1147 120° Southeast 198 228 13,400 -780 Descending Kansas City Center
04:13PM 39.2897 -95.9828 119° Southeast 203 234 11,600 -900 Descending Kansas City Center
04:14PM 39.2603 -95.9114 118° Southeast 202 232 10,700 -840 Descending Kansas City Center
04:15PM 39.2358 -95.8528 118° Southeast 197 227 9,900 -840 Descending Kansas City Center
04:16PM 39.2072 -95.7831 118° Southeast 196 226 9,000 -780 Descending Kansas City Center
04:18PM 39.1793 -95.7071 118° Southeast  Level FlightAware Approximate
04:18PM 39.1569 -95.6619 118° Southeast 183 211 7,500  Level Kansas City Center
04:19PM 39.1344 -95.6083 118° Southeast 178 205 6,900 -780 Descending Kansas City Center
04:20PM 39.1083 -95.5461 118° Southeast 177 204 6,000 -600 Descending Kansas City Center
04:23PM 39.0500 -95.4167 120° Southeast 159 183 5,000 -360 Descending Kansas City TRACON
04:24PM 39.0333 -95.3667 113° Southeast 146 168 4,800 -240 Descending Kansas City TRACON
04:24PM 39.0081 -95.3525 156° South 163 188 4,600 -420 Descending Kansas City Center
04:25PM 38.9728 -95.3189 143° Southeast 165 190 4,200 -300 Descending Kansas City Center
04:26PM 38.9336 -95.2819 144° Southeast 156 180 4,100 -60 Descending Kansas City Center
04:28PM 38.9022 -95.2514 143° Southeast 148 170 4,100 -240 Level Kansas City Center
04:29PM 38.8794 -95.2114 126° Southeast 157 181 3,700 -600 Descending Kansas City Center
04:30PM 38.8717 -95.1444 98° East 170 196 2,900 -600 Descending Kansas City Center
04:31PM 38.8594 -95.0900 106° East 167 192 2,500 -420 Descending Kansas City Center
04:33PM 38.8437 -94.9755 100° East  Level FlightAware Approximate
04:40PM 38.8309 -94.8903 142° Southeast  Level Estimated
04:41PM 38.8309 -94.8903 142° Southeast  Level Estimated
04:42PM 38.8309 -94.8903 142° Southeast  Level Estimated
04:43PM 38.8309 -94.8903 142° Southeast  Level Estimated
04:44PM 38.8309 -94.8903 142° Southeast  Level Estimated
04:45PM 38.8309 -94.8903 142° Southeast  Level Estimated
04:46PM 38.8309 -94.8903 142° Southeast  Level Estimated
04:47PM 38.8309 -94.8903 142° Southeast  Level Estimated
04:48PM 38.8309 -94.8903 142° Southeast  Level Estimated
04:49PM 38.8309 -94.8903 142° Southeast  Level Estimated
04:50PM 38.8309 -94.8903 142° Southeast  Level Estimated
04:51PM 38.8309 -94.8903 142° Southeast  Level Estimated
04:52PM 38.8309 -94.8903 142° Southeast  Level Estimated
04:53PM 38.8309 -94.8903 142° Southeast  Level Estimated